Time;durP1;ratioP1;P1;durP2;ratioP2;P2;SDS_P1;SDS_P2;PMS_P1;PMS_P2;Temp;Humidity;BMP_temperature;BMP_pressure;BME280_temperature;BME280_humidity;BME280_pressure;Samples;Min_cycle;Max_cycle;Signal;HPM_P1;HPM_P2
2023/04/28 02:28:57;;;;;;;6.43;4.10;;;;;;;;;;4999866;28;20035;-89
2023/04/28 02:31:23;;;;;;;6.15;4.07;;;;;;;;;;4979651;28;20050;-88
2023/04/28 02:33:52;;;;;;;7.20;4.05;;;;;;;;;;4987948;28;20028;-89
2023/04/28 02:36:21;;;;;;;8.52;4.43;;;;;;;;;;4994825;28;20034;-88
2023/04/28 02:38:47;;;;;;;6.00;3.72;;;;;;;;;;4981449;28;20023;-88
2023/04/28 02:41:14;;;;;;;5.20;3.63;;;;;;;;;;4993702;28;20027;-89
2023/04/28 02:43:41;;;;;;;7.50;4.00;;;;;;;;;;4977555;28;20007;-89
2023/04/28 02:46:07;;;;;;;5.35;3.47;;;;;;;;;;4980911;28;20042;-90
2023/04/28 02:48:34;;;;;;;6.20;4.38;;;;;;;;;;4993158;28;20027;-89
2023/04/28 02:51:01;;;;;;;7.05;3.63;;;;;;;;;;4976254;28;20081;-90
2023/04/28 02:53:27;;;;;;;7.30;3.92;;;;;;;;;;4992896;28;20038;-88
2023/04/28 02:55:53;;;;;;;6.55;3.92;;;;;;;;;;4982370;28;20010;-89
2023/04/28 02:58:19;;;;;;;6.50;3.80;;;;;;;;;;4994978;28;20037;-89
2023/04/28 03:00:45;;;;;;;5.85;3.95;;;;;;;;;;4976029;28;20011;-90
2023/04/28 03:03:11;;;;;;;5.53;4.10;;;;;;;;;;4978940;28;20059;-89
2023/04/28 03:05:37;;;;;;;6.40;4.07;;;;;;;;;;4978033;28;20019;-90
2023/04/28 03:08:04;;;;;;;6.22;4.05;;;;;;;;;;4972877;28;20062;-88
2023/04/28 03:10:30;;;;;;;7.40;4.00;;;;;;;;;;4993941;28;20018;-89
2023/04/28 03:12:56;;;;;;;6.72;4.20;;;;;;;;;;4987060;28;20029;-88
2023/04/28 03:15:22;;;;;;;6.10;3.97;;;;;;;;;;4997878;28;20452;-89
2023/04/28 03:17:48;;;;;;;6.30;4.28;;;;;;;;;;4989054;28;20011;-89
2023/04/28 03:20:14;;;;;;;5.65;4.28;;;;;;;;;;4993284;28;20347;-89
2023/04/28 03:22:40;;;;;;;6.35;4.30;;;;;;;;;;4994148;28;20057;-88
2023/04/28 03:25:06;;;;;;;5.93;4.35;;;;;;;;;;4976301;28;20026;-90
2023/04/28 03:27:32;;;;;;;6.45;4.30;;;;;;;;;;4994357;28;20053;-90
2023/04/28 03:29:58;;;;;;;5.93;4.40;;;;;;;;;;4986945;28;20018;-89
2023/04/28 03:32:24;;;;;;;9.48;4.60;;;;;;;;;;4991557;28;20242;-88
2023/04/28 03:34:50;;;;;;;7.40;4.40;;;;;;;;;;4991076;28;20023;-88
2023/04/28 03:37:16;;;;;;;7.30;4.53;;;;;;;;;;4982426;28;20034;-88
2023/04/28 03:39:43;;;;;;;7.63;4.53;;;;;;;;;;4991045;28;20035;-88
2023/04/28 03:42:09;;;;;;;6.93;4.70;;;;;;;;;;4977049;28;20050;-89
2023/04/28 03:44:35;;;;;;;6.82;4.53;;;;;;;;;;4976705;28;20027;-88
2023/04/28 03:47:01;;;;;;;6.90;4.32;;;;;;;;;;4995934;28;20075;-90
2023/04/28 03:49:27;;;;;;;9.23;4.50;;;;;;;;;;4978948;28;20002;-89
2023/04/28 03:51:53;;;;;;;8.32;4.43;;;;;;;;;;4992002;28;20023;-89
2023/04/28 03:54:19;;;;;;;6.90;4.00;;;;;;;;;;4968319;28;20034;-89
2023/04/28 03:56:45;;;;;;;9.13;4.60;;;;;;;;;;4983957;28;20039;-89
2023/04/28 03:59:11;;;;;;;6.45;4.57;;;;;;;;;;4989951;28;20094;-89
2023/04/28 04:01:38;;;;;;;9.23;4.50;;;;;;;;;;4981996;28;20011;-90
2023/04/28 04:04:07;;;;;;;10.52;5.25;;;;;;;;;;4976958;28;20038;-90
2023/04/28 04:06:33;;;;;;;6.40;4.37;;;;;;;;;;4992026;28;20026;-89
2023/04/28 04:08:59;;;;;;;8.48;5.18;;;;;;;;;;4979084;28;20011;-89
2023/04/28 04:11:25;;;;;;;6.25;4.20;;;;;;;;;;4978666;28;20050;-89
2023/04/28 04:13:51;;;;;;;7.05;4.50;;;;;;;;;;4975909;28;21495;-90
2023/04/28 04:16:17;;;;;;;6.90;4.95;;;;;;;;;;4963708;28;20034;-89
2023/04/28 04:18:43;;;;;;;8.23;4.57;;;;;;;;;;4989121;28;20011;-89
2023/04/28 04:21:10;;;;;;;8.15;5.10;;;;;;;;;;4978300;28;20019;-89
2023/04/28 04:23:35;;;;;;;7.97;5.00;;;;;;;;;;4972414;28;20011;-88
2023/04/28 04:26:01;;;;;;;6.38;4.60;;;;;;;;;;4984985;28;20046;-89
2023/04/28 04:28:27;;;;;;;9.40;5.07;;;;;;;;;;4989690;28;20023;-90
2023/04/28 04:30:53;;;;;;;8.27;5.00;;;;;;;;;;4996597;28;20019;-90
2023/04/28 04:33:19;;;;;;;8.85;4.93;;;;;;;;;;4978646;28;20053;-89
2023/04/28 04:35:46;;;;;;;8.27;5.03;;;;;;;;;;4978704;28;20069;-91
2023/04/28 04:38:12;;;;;;;8.48;4.85;;;;;;;;;;4993648;28;20023;-90
2023/04/28 04:40:38;;;;;;;7.32;4.55;;;;;;;;;;4975659;28;20045;-90
2023/04/28 04:43:04;;;;;;;9.25;4.97;;;;;;;;;;4976409;28;20022;-89
2023/04/28 04:45:30;;;;;;;8.15;4.97;;;;;;;;;;4987562;28;20021;-90
2023/04/28 04:47:56;;;;;;;9.00;5.25;;;;;;;;;;4988953;28;20026;-89
2023/04/28 04:50:23;;;;;;;10.18;5.07;;;;;;;;;;4993241;28;20027;-91
2023/04/28 04:52:49;;;;;;;9.50;5.30;;;;;;;;;;4977178;28;20031;-89
2023/04/28 04:55:15;;;;;;;7.90;5.43;;;;;;;;;;4987482;28;20050;-90
2023/04/28 04:57:41;;;;;;;7.60;5.13;;;;;;;;;;4975947;28;20026;-88
2023/04/28 05:00:08;;;;;;;9.10;5.00;;;;;;;;;;4990288;28;20026;-88
2023/04/28 05:02:34;;;;;;;10.43;5.35;;;;;;;;;;4979999;28;20029;-88
2023/04/28 05:05:00;;;;;;;6.15;4.60;;;;;;;;;;4979243;28;20030;-87
2023/04/28 05:07:26;;;;;;;8.15;4.90;;;;;;;;;;4977227;28;20006;-88
2023/04/28 05:09:52;;;;;;;6.38;4.68;;;;;;;;;;4979418;28;20015;-88
2023/04/28 05:12:18;;;;;;;6.45;4.97;;;;;;;;;;4981664;28;20034;-90
2023/04/28 05:14:44;;;;;;;7.82;5.18;;;;;;;;;;4996909;28;20161;-89
2023/04/28 05:17:11;;;;;;;7.68;4.70;;;;;;;;;;4999642;28;20091;-89
2023/04/28 05:19:37;;;;;;;10.57;4.40;;;;;;;;;;5001048;28;20042;-88
2023/04/28 05:22:03;;;;;;;8.02;4.82;;;;;;;;;;4991388;28;20042;-89
2023/04/28 05:24:29;;;;;;;6.15;4.22;;;;;;;;;;4994187;28;20019;-88
2023/04/28 05:26:57;;;;;;;6.80;5.03;;;;;;;;;;4992682;28;20017;-89
2023/04/28 05:29:23;;;;;;;9.40;5.10;;;;;;;;;;4992223;28;20018;-87
2023/04/28 05:31:49;;;;;;;13.00;4.95;;;;;;;;;;4993463;28;20042;-89
2023/04/28 05:34:15;;;;;;;7.10;4.65;;;;;;;;;;4993673;28;20023;-87
2023/04/28 05:36:41;;;;;;;6.07;4.85;;;;;;;;;;4981880;28;20019;-92
2023/04/28 05:39:07;;;;;;;5.78;4.45;;;;;;;;;;4977878;28;20015;-88
2023/04/28 05:41:35;;;;;;;9.75;5.70;;;13.20;99.90;;;;;;4992142;28;20107;-89
2023/04/28 05:44:01;;;;;;;8.40;5.00;;;;;;;;;;4994239;28;20015;-91
2023/04/28 05:46:27;;;;;;;7.93;5.68;;;;;;;;;;4995338;28;20029;-89
2023/04/28 05:48:53;;;;;;;9.73;6.00;;;;;;;;;;4976584;28;20086;-91
2023/04/28 05:51:21;;;;;;;8.90;6.15;;;;;;;;;;4976641;28;20054;-89
2023/04/28 05:53:47;;;;;;;9.38;5.57;;;;;;;;;;4991010;28;20015;-90
2023/04/28 05:56:15;;;;;;;7.90;5.57;;;;;;;;;;4990559;28;20042;-91
2023/04/28 05:58:43;;;;;;;8.00;6.60;;;;;;;;;;4976745;28;20011;-89
2023/04/28 06:01:09;;;;;;;8.93;6.78;;;;;;;;;;4980616;28;20023;-89
2023/04/28 06:03:35;;;;;;;9.77;7.18;;;;;;;;;;4977608;28;20146;-90
2023/04/28 06:06:01;;;;;;;10.13;6.93;;;;;;;;;;4999932;28;20042;-90
2023/04/28 06:08:27;;;;;;;8.93;6.65;;;;;;;;;;4994672;28;20003;-89
2023/04/28 06:10:53;;;;;;;8.35;6.50;;;;;;;;;;4990998;28;20033;-88
2023/04/28 06:13:19;;;;;;;11.20;7.00;;;;;;;;;;4982869;28;20061;-90
2023/04/28 06:15:45;;;;;;;8.77;6.47;;;;;;;;;;4989584;28;20027;-90
2023/04/28 06:18:11;;;;;;;7.22;6.18;;;;;;;;;;4997458;28;20039;-91
2023/04/28 06:20:37;;;;;;;8.85;6.47;;;;;;;;;;5003625;28;20034;-89
2023/04/28 06:23:03;;;;;;;8.88;5.68;;;;;;;;;;4991810;28;20011;-90
2023/04/28 06:25:29;;;;;;;7.68;5.68;;;;;;;;;;4995537;28;20042;-89
2023/04/28 06:27:55;;;;;;;9.23;5.50;;;;;;;;;;4978466;28;20035;-90
2023/04/28 06:30:22;;;;;;;8.93;5.13;;;;;;;;;;4995766;28;20035;-92
2023/04/28 06:32:48;;;;;;;10.50;5.70;;;;;;;;;;4979379;28;20031;-92
2023/04/28 06:35:15;;;;;;;7.30;5.05;;;;;;;;;;4976480;28;21365;-91
2023/04/28 06:37:42;;;;;;;8.85;6.10;;;;;;;;;;4993232;28;20035;-90
2023/04/28 06:40:08;;;;;;;9.05;5.78;;;;;;;;;;4993868;28;20110;-91
2023/04/28 06:42:34;;;;;;;7.57;5.10;;;;;;;;;;4974300;28;20023;-90
2023/04/28 06:45:00;;;;;;;7.97;5.13;;;;;;;;;;4991145;28;20055;-88
2023/04/28 06:47:26;;;;;;;9.80;4.90;;;;;;;;;;4977526;28;20031;-91
2023/04/28 06:49:52;;;;;;;6.38;4.72;;;;;;;;;;4982232;28;20038;-88
2023/04/28 06:52:20;;;;;;;6.22;4.35;;;;;;;;;;4976804;28;20034;-89
2023/04/28 06:54:47;;;;;;;7.03;4.53;;;;;;;;;;4993531;28;20047;-91
2023/04/28 06:57:13;;;;;;;6.47;4.47;;;;;;;;;;4983355;28;20019;-89
2023/04/28 06:59:42;;;;;;;7.75;4.40;;;;;;;;;;4983208;28;20026;-89
2023/04/28 07:02:10;;;;;;;8.43;4.22;;;;;;;;;;4991630;28;20131;-89
2023/04/28 07:04:36;;;;;;;7.40;4.30;;;;;;;;;;4996331;28;20015;-89
2023/04/28 07:07:06;;;;;;;5.38;4.28;;;;;;;;;;4979357;28;20047;-89
2023/04/28 07:09:33;;;;;;;7.07;4.97;;;;;;;;;;4983467;28;20030;-89
2023/04/28 07:11:59;;;;;;;7.10;4.03;;;;;;;;;;4990762;28;20015;-90
2023/04/28 07:14:25;;;;;;;5.82;3.80;;;;;;;;;;4979997;28;20081;-89
2023/04/28 07:16:51;;;;;;;6.93;4.00;;;;;;;;;;4978063;28;20090;-89
2023/04/28 07:19:17;;;;;;;13.10;4.72;;;;;;;;;;4990888;28;20027;-91
2023/04/28 07:21:43;;;;;;;5.32;3.80;;;;;;;;;;4974078;28;20037;-89
2023/04/28 07:24:10;;;;;;;7.05;4.10;;;;;;;;;;4995626;28;20047;-90
2023/04/28 07:26:36;;;;;;;7.22;4.00;;;;;;;;;;4978235;28;20082;-90
2023/04/28 07:29:02;;;;;;;8.73;3.90;;;;;;;;;;4996317;28;20014;-89
2023/04/28 07:31:28;;;;;;;5.82;3.92;;;;;;;;;;4974793;28;20010;-90
2023/04/28 07:33:55;;;;;;;5.20;3.28;;;;;;;;;;4978653;28;20031;-90
2023/04/28 07:36:21;;;;;;;5.00;3.20;;;;;;;;;;4993756;28;20114;-90
2023/04/28 07:38:47;;;;;;;6.28;3.33;;;;;;;;;;4991096;28;20045;-89
2023/04/28 07:41:13;;;;;;;5.00;3.22;;;;;;;;;;4991608;28;20031;-89
2023/04/28 07:43:40;;;;;;;8.60;3.78;;;;;;;;;;4977759;28;20014;-90
2023/04/28 07:46:08;;;;;;;6.32;3.53;;;;;;;;;;4993562;28;20034;-90
2023/04/28 07:48:34;;;;;;;7.30;3.45;;;;;;;;;;4994217;28;20026;-89
2023/04/28 07:51:01;;;;;;;6.28;3.53;;;;;;;;;;4980664;28;20025;-90
2023/04/28 07:53:27;;;;;;;5.43;3.20;;;;;;;;;;4983123;28;20033;-91
2023/04/28 07:55:54;;;;;;;5.88;3.03;;;;;;;;;;4979508;28;20034;-90
2023/04/28 09:31:53;;;;;;;2.15;1.10;;;;;;;;;;5017528;28;20058;-88
2023/04/28 09:34:21;;;;;;;1.90;1.20;;;;;;;;;;5010095;28;20039;-91
2023/04/28 09:36:47;;;;;;;2.33;1.50;;;;;;;;;;4992506;28;20484;-90
2023/04/28 09:39:13;;;;;;;2.20;1.10;;;;;;;;;;4978883;28;20030;-91
2023/04/28 09:41:41;;;;;;;4.35;1.58;;;16.20;99.90;;;;;;4980912;28;20019;-88
2023/04/28 09:44:10;;;;;;;12.35;2.50;;;;;;;;;;4977438;28;20027;-87
2023/04/28 09:46:36;;;;;;;3.15;1.42;;;;;;;;;;4978897;28;20064;-88
2023/04/28 09:49:05;;;;;;;9.13;2.25;;;;;;;;;;4992566;28;20035;-88
2023/04/28 09:51:31;;;;;;;6.22;1.48;;;;;;;;;;4997143;28;20026;-89
2023/04/28 09:54:00;;;;;;;6.32;1.88;;;16.20;99.90;;;;;;4995814;28;20038;-90
2023/04/28 09:56:30;;;;;;;4.35;1.20;;;16.30;99.90;;;;;;4984830;28;20647;-90
2023/04/28 09:59:20;;;;;;;2.75;1.20;;;16.30;99.90;;;;;;4978710;28;20035;-91
2023/04/28 10:02:05;;;;;;;2.28;1.08;;;;;;;;;;4997155;28;20007;-91
2023/04/28 10:04:32;;;;;;;2.60;1.45;;;16.50;99.90;;;;;;4995715;23;21120;-84
2023/04/28 10:06:59;;;;;;;1.73;1.13;;;16.60;99.90;;;;;;4972216;28;20491;-87
2023/04/28 10:09:27;;;;;;;2.75;0.85;;;;;;;;;;5005936;28;20011;-84
2023/04/28 10:11:53;;;;;;;5.32;1.70;;;16.70;99.90;;;;;;4999510;28;20050;-84
2023/04/28 10:14:19;;;;;;;2.58;1.10;;;16.70;99.90;;;;;;4982575;28;20123;-85
2023/04/28 10:16:45;;;;;;;2.10;1.40;;;16.80;99.90;;;;;;4985318;28;20499;-85
2023/04/28 10:19:11;;;;;;;3.22;1.17;;;16.90;99.90;;;;;;4985056;28;20073;-84
2023/04/28 10:21:43;;;;;;;2.42;1.30;;;16.90;99.90;;;;;;4978679;28;20105;-85
2023/04/28 10:24:27;;;;;;;2.85;1.10;;;17.00;99.90;;;;;;4982405;28;20030;-85
2023/04/28 10:27:03;;;;;;;2.30;1.27;;;16.90;99.90;;;;;;4983316;28;20061;-83
2023/04/28 10:29:29;;;;;;;1.73;0.98;;;17.00;99.90;;;;;;4983482;28;20030;-84
2023/04/28 10:32:15;;;;;;;1.77;1.10;;;16.90;99.90;;;;;;4984947;28;20031;-82
2023/04/28 10:34:40;;;;;;;2.38;1.10;;;17.00;99.90;;;;;;4984062;28;20034;-83
2023/04/28 10:37:06;;;;;;;1.98;1.10;;;;;;;;;;4981700;28;20045;-84
2023/04/28 10:39:32;;;;;;;1.65;1.13;;;17.00;99.90;;;;;;4986466;28;20036;-85
2023/04/28 10:41:58;;;;;;;1.98;1.10;;;17.00;99.90;;;;;;4977273;28;20431;-84
2023/04/28 10:44:30;;;;;;;3.10;1.20;;;17.00;99.90;;;;;;4989589;28;20038;-86
2023/04/28 10:47:05;;;;;;;2.88;1.40;;;17.00;99.90;;;;;;4989865;28;20027;-85
2023/04/28 10:50:02;;;;;;;3.10;1.42;;;16.90;99.90;;;;;;4997569;28;20118;-83
2023/04/28 10:52:37;;;;;;;1.98;1.25;;;;;;;;;;4988747;28;20090;-84
2023/04/28 10:55:25;;;;;;;2.97;1.58;;;16.80;99.90;;;;;;4988975;28;20030;-88
2023/04/28 10:58:16;;;;;;;2.20;1.33;;;16.90;99.90;;;;;;4996090;28;20102;-87
2023/04/28 11:00:44;;;;;;;1.80;1.13;;;16.90;99.90;;;;;;5005957;28;20250;-88
2023/04/28 11:03:48;;;;;;;2.20;1.42;;;16.90;99.90;;;;;;5002240;28;20340;-86
2023/04/28 11:06:45;;;;;;;2.00;1.30;;;17.00;99.90;;;;;;4989533;28;20097;-87
2023/04/28 11:09:18;;;;;;;4.35;1.77;;;17.00;99.90;;;;;;4996484;28;20395;-87
2023/04/28 11:11:59;;;;;;;3.05;1.50;;;;;;;;;;4995073;28;20069;-88
2023/04/28 11:14:25;;;;;;;3.50;1.67;;;;;;;;;;4987081;28;20084;-87
2023/04/28 11:16:54;;;;;;;2.38;1.33;;;17.00;99.90;;;;;;4993219;28;20073;-88
2023/04/28 11:19:28;;;;;;;2.15;1.27;;;17.10;99.90;;;;;;4988140;28;20059;-86
2023/04/28 11:21:55;;;;;;;1.15;0.95;;;;;;;;;;4987161;28;20060;-86
2023/04/28 11:24:21;;;;;;;1.83;0.80;;;;;;;;;;4996428;28;20026;-86
2023/04/28 11:26:47;;;;;;;3.38;1.17;;;;;;;;;;4998196;28;20069;-87
2023/04/28 11:29:14;;;;;;;1.13;0.80;;;;;;;;;;4988962;28;20022;-87
2023/04/28 11:31:41;;;;;;;1.20;0.75;;;;;;;;;;4993335;28;20025;-87
2023/04/28 11:34:11;;;;;;;2.03;0.80;;;18.30;99.90;;;;;;4993220;28;20100;-87
2023/04/28 11:36:38;;;;;;;42.35;28.08;;;18.50;99.90;;;;;;4990821;28;20506;-87
2023/04/28 11:39:08;;;;;;;5.07;3.45;;;18.70;99.90;;;;;;4996398;28;20040;-87
2023/04/28 11:41:40;;;;;;;2.20;1.40;;;18.90;99.90;;;;;;4992703;28;20109;-84
2023/04/28 11:44:16;;;;;;;2.80;1.50;;;19.00;99.90;;;;;;4990364;28;20032;-87
2023/04/28 11:46:56;;;;;;;2.33;1.02;;;19.00;99.90;;;;;;4991604;28;20541;-87
2023/04/28 11:49:40;;;;;;;3.08;1.20;;;19.10;99.90;;;;;;4999251;28;20038;-86
2023/04/28 11:52:07;;;;;;;1.98;1.00;;;19.20;99.90;;;;;;4992381;28;20034;-86
2023/04/28 11:54:36;;;;;;;2.58;1.48;;;;;;;;;;4984460;28;20061;-86
2023/04/28 11:57:03;;;;;;;1.30;1.00;;;;;;;;;;4997007;28;20030;-87
2023/04/28 11:59:34;;;;;;;1.90;1.02;;;19.40;99.90;;;;;;5000877;28;20061;-83
2023/04/28 12:02:05;;;;;;;3.13;1.00;;;19.40;99.90;;;;;;5000892;28;20019;-87
2023/04/28 12:04:38;;;;;;;1.50;0.88;;;;;;;;;;4998481;28;20022;-85
2023/04/28 12:07:05;;;;;;;2.55;1.05;;;19.20;99.90;;;;;;4998406;28;20058;-85
2023/04/28 12:09:34;;;;;;;2.60;1.20;;;19.20;99.90;;;;;;4999124;28;20026;-85
2023/04/28 12:12:11;;;;;;;2.33;1.20;;;19.10;99.90;;;;;;5000736;28;20215;-87
2023/04/28 12:14:55;;;;;;;1.85;1.00;;;19.10;99.90;;;;;;5000140;28;20026;-83
2023/04/28 12:17:30;;;;;;;2.30;1.30;;;19.00;99.90;;;;;;5001871;28;20421;-87
2023/04/28 12:19:57;;;;;;;1.13;0.93;;;19.00;99.90;;;;;;5003743;28;20023;-85
2023/04/28 12:22:32;;;;;;;1.05;0.90;;;;;;;;;;5004300;28;20037;-89
2023/04/28 12:25:15;;;;;;;;;;;;;;;;;;;;;
2023/04/28 12:28:03;;;;;;;2.17;1.40;;;;;;;;;;5005058;28;20099;-84
2023/04/28 12:30:33;;;;;;;1.58;0.85;;;18.90;99.90;;;;;;5003670;28;20077;-85
2023/04/28 12:32:59;;;;;;;1.55;0.95;;;;;;;;;;5001821;28;20286;-85
2023/04/28 12:35:26;;;;;;;1.20;1.05;;;;;;;;;;5004263;28;20035;-85
2023/04/28 12:37:52;;;;;;;2.38;1.30;;;;;;;;;;5000334;28;20015;-86
2023/04/28 12:40:19;;;;;;;5.38;1.55;;;;;;;;;;5000923;28;20053;-88
2023/04/28 12:42:45;;;;;;;1.77;0.90;;;;;;;;;;4995943;28;20023;-85
2023/04/28 12:45:11;;;;;;;2.20;1.00;;;;;;;;;;4997249;28;20106;-84
2023/04/28 12:47:38;;;;;;;3.22;1.10;;;;;;;;;;4998962;28;20061;-84
2023/04/28 12:50:05;;;;;;;3.00;1.58;;;19.20;99.90;;;;;;4999333;28;20022;-86
2023/04/28 12:52:32;;;;;;;3.53;1.00;;;;;;;;;;4999754;28;20026;-84
2023/04/28 12:54:59;;;;;;;2.25;0.80;;;19.50;99.90;;;;;;4999195;28;20058;-84
2023/04/28 12:57:25;;;;;;;1.65;0.90;;;;;;;;;;4999152;28;20027;-87
2023/04/28 12:59:52;;;;;;;3.67;1.00;;;;;;;;;;4985234;28;20462;-84
2023/04/28 13:02:18;;;;;;;3.40;1.10;;;20.10;99.90;;;;;;4988306;28;20072;-85
2023/04/28 13:04:44;;;;;;;1.90;0.70;;;20.20;99.90;;;;;;5000905;28;20479;-83
2023/04/28 13:07:14;;;;;;;1.10;0.60;;;20.10;99.90;;;;;;5000352;28;20027;-86
2023/04/28 13:09:41;;;;;;;1.42;0.70;;;;;;;;;;4997266;28;20201;-85
2023/04/28 13:12:08;;;;;;;1.20;0.80;;;20.10;99.90;;;;;;4989463;28;20113;-83
2023/04/28 13:14:34;;;;;;;1.17;0.70;;;;;;;;;;4989832;28;20023;-86
2023/04/28 13:17:02;;;;;;;2.03;0.63;;;;;;;;;;4992290;28;20046;-84
2023/04/28 13:19:29;;;;;;;4.10;0.85;;;;;;;;;;4991541;28;20038;-81
2023/04/28 13:21:55;;;;;;;3.88;0.73;;;;;;;;;;4988026;28;20369;-85
2023/04/28 13:24:21;;;;;;;1.50;0.55;;;;;;;;;;4988168;28;20027;-84
2023/04/28 13:26:47;;;;;;;4.63;0.70;;;;;;;;;;4990898;28;20491;-81
2023/04/28 13:29:13;;;;;;;1.35;0.80;;;;;;;;;;4989987;28;20042;-85
2023/04/28 13:31:39;;;;;;;3.67;0.80;;;20.40;99.90;;;;;;4983754;28;20038;-84
2023/04/28 13:34:06;;;;;;;1.23;0.90;;;20.20;99.90;;;;;;4991470;28;20034;-86
2023/04/28 13:36:33;;;;;;;0.85;0.63;;;;;;;;;;4993743;28;20031;-84
2023/04/28 13:38:59;;;;;;;2.40;0.77;;;19.80;99.90;;;;;;4992707;28;20023;-86
2023/04/28 13:41:24;;;;;;;1.88;0.60;;;19.70;99.90;;;;;;4988997;28;20479;-84
2023/04/28 13:43:51;;;;;;;2.88;0.70;;;;;;;;;;4998504;28;20057;-84
2023/04/28 13:46:17;;;;;;;1.45;0.65;;;19.60;99.90;;;;;;4990811;28;20035;-80
2023/04/28 13:48:46;;;;;;;2.10;0.63;;;;;;;;;;4994734;28;20045;-83
2023/04/28 13:51:12;;;;;;;1.08;0.70;;;;;;;;;;4990753;28;20468;-84
2023/04/28 13:53:38;;;;;;;1.23;0.60;;;19.70;99.90;;;;;;4987362;28;20042;-84
2023/04/28 13:56:05;;;;;;;3.22;0.70;;;19.70;99.90;;;;;;4988544;28;20027;-81
2023/04/28 13:58:31;;;;;;;0.95;0.60;;;19.70;99.90;;;;;;4997146;28;20023;-84
2023/04/28 14:01:02;;;;;;;1.10;0.57;;;;;;;;;;4984696;28;20062;-85
2023/04/28 14:03:28;;;;;;;2.40;0.70;;;;;;;;;;4994897;28;20105;-83
2023/04/28 14:05:56;;;;;;;2.17;0.85;;;;;;;;;;4986049;28;20046;-85
2023/04/28 14:08:28;;;;;;;2.30;0.82;;;20.00;99.90;;;;;;4985629;28;20122;-84
2023/04/28 14:10:54;;;;;;;0.88;0.60;;;;;;;;;;4993453;28;20399;-83
2023/04/28 14:13:20;;;;;;;0.40;0.32;;;;;;;;;;5002230;28;20104;-85
2023/04/28 14:15:46;;;;;;;2.08;0.90;;;;;;;;;;4990836;28;20050;-84
2023/04/28 14:18:13;;;;;;;0.90;0.60;;;;;;;;;;4994940;28;20094;-87
2023/04/28 14:20:39;;;;;;;0.93;0.55;;;;;;;;;;4996687;28;20065;-83
2023/04/28 14:23:06;;;;;;;1.23;0.73;;;;;;;;;;4993876;28;20494;-85
2023/04/28 14:25:32;;;;;;;1.95;0.90;;;;;;;;;;4985742;28;20022;-84
2023/04/28 14:27:58;;;;;;;0.90;0.60;;;;;;;;;;4984430;28;20133;-86
2023/04/28 14:30:25;;;;;;;0.57;0.50;;;20.30;99.90;;;;;;4988836;28;20070;-85
2023/04/28 14:32:51;;;;;;;1.65;0.52;;;;;;;;;;4992124;28;20631;-84
2023/04/28 14:35:19;;;;;;;0.70;0.50;;;;;;;;;;4995791;28;20161;-84
2023/04/28 14:37:46;;;;;;;1.13;0.70;;;;;;;;;;4990270;28;20439;-86
2023/04/28 14:40:12;;;;;;;2.00;0.60;;;;;;;;;;4988026;28;20126;-82
2023/04/28 14:42:38;;;;;;;1.13;0.50;;;;;;;;;;4987969;28;20027;-85
2023/04/28 14:45:05;;;;;;;2.17;0.95;;;20.20;99.90;;;;;;4987129;28;20055;-86
2023/04/28 14:47:32;;;;;;;2.35;0.70;;;;;;;;;;4994025;28;20038;-84
2023/04/28 14:49:58;;;;;;;2.10;0.70;;;;;;;;;;4990671;28;20065;-82
2023/04/28 14:52:26;;;;;;;3.80;0.70;;;20.20;99.90;;;;;;5001384;28;20053;-85
2023/04/28 14:54:52;;;;;;;1.90;0.70;;;;;;;;;;4981971;28;20030;-83
2023/04/28 14:57:19;;;;;;;0.93;0.60;;;;;;;;;;4989359;28;20055;-83
2023/04/28 14:59:45;;;;;;;1.35;0.93;;;20.40;99.90;;;;;;4997027;28;20221;-86
2023/04/28 15:02:12;;;;;;;1.70;0.90;;;;;;;;;;4990385;28;20031;-86
2023/04/28 15:04:38;;;;;;;1.52;0.70;;;;;;;;;;4981668;28;20034;-85
2023/04/28 15:07:04;;;;;;;1.55;1.00;;;;;;;;;;4990049;28;20030;-83
2023/04/28 15:09:37;;;;;;;1.02;0.80;;;20.80;99.90;;;;;;4986230;23;20059;-85
2023/04/28 15:12:03;;;;;;;2.78;0.70;;;;;;;;;;4953881;28;20126;-85
2023/04/28 15:14:29;;;;;;;2.10;0.80;;;;;;;;;;4988974;28;20026;-84
2023/04/28 15:16:55;;;;;;;1.92;1.13;;;20.80;99.90;;;;;;4983559;28;20030;-85
2023/04/28 15:19:21;;;;;;;1.02;0.65;;;;;;;;;;4961296;28;20383;-86
2023/04/28 15:21:47;;;;;;;6.57;1.00;;;;;;;;;;4959077;28;20026;-86
2023/04/28 15:24:14;;;;;;;1.02;0.60;;;20.80;99.90;;;;;;4978844;28;20061;-87
2023/04/28 15:26:41;;;;;;;1.02;0.63;;;;;;;;;;4956347;28;20126;-85
2023/04/28 15:29:08;;;;;;;1.35;0.60;;;20.80;99.90;;;;;;4953136;28;20031;-87
2023/04/28 15:31:34;;;;;;;1.40;0.80;;;;;;;;;;4954364;28;20035;-87
2023/04/28 15:34:00;;;;;;;2.00;0.80;;;;;;;;;;4953645;28;20085;-88
2023/04/28 15:36:27;;;;;;;1.83;0.80;;;;;;;;;;4962395;28;20037;-86
2023/04/28 15:38:53;;;;;;;2.15;1.05;;;;;;;;;;4973346;28;20030;-86
2023/04/28 15:41:19;;;;;;;2.08;0.98;;;;;;;;;;4957134;28;20030;-85
2023/04/28 15:43:46;;;;;;;1.33;0.88;;;;;;;;;;4943345;28;20043;-87
2023/04/28 15:46:15;;;;;;;2.00;1.20;;;20.80;99.90;;;;;;4952933;28;20046;-86
2023/04/28 15:48:42;;;;;;;2.45;0.90;;;;;;;;;;4966494;28;20037;-86
2023/04/28 15:51:09;;;;;;;2.35;1.10;;;20.80;99.90;;;;;;4957730;28;20030;-86
2023/04/28 15:53:36;;;;;;;2.92;1.50;;;;;;;;;;4956789;28;20430;-87
2023/04/28 15:56:06;;;;;;;2.33;1.02;;;;;;;;;;4955925;28;20488;-87
2023/04/28 15:58:32;;;;;;;2.05;1.10;;;;;;;;;;4968126;28;20106;-87
2023/04/28 16:00:58;;;;;;;2.72;1.60;;;;;;;;;;4958746;28;20031;-90
2023/04/28 16:03:25;;;;;;;1.90;0.70;;;;;;;;;;4957809;28;20034;-90
2023/04/28 16:05:54;;;;;;;6.38;1.30;;;20.50;99.90;;;;;;4954604;28;20098;-88
2023/04/28 16:08:23;;;;;;;2.03;0.82;;;20.50;99.90;;;;;;4970025;28;20069;-89
2023/04/28 16:10:49;;;;;;;2.42;0.82;;;20.50;99.90;;;;;;4951640;28;20073;-90
2023/04/28 16:13:17;;;;;;;2.20;1.10;;;;;;;;;;4954791;28;20037;-86
2023/04/28 16:15:43;;;;;;;1.70;0.82;;;20.10;99.90;;;;;;4961684;28;20038;-87
2023/04/28 16:18:09;;;;;;;2.53;1.00;;;20.10;99.90;;;;;;4956265;28;20086;-87
2023/04/28 16:20:34;;;;;;;3.55;1.20;;;20.00;99.90;;;;;;4947816;28;20109;-86
2023/04/28 16:23:00;;;;;;;3.05;1.20;;;20.00;99.90;;;;;;4954879;28;20022;-84
2023/04/28 16:25:26;;;;;;;2.60;1.75;;;;;;;;;;4952041;28;20049;-88
2023/04/28 16:27:52;;;;;;;2.65;1.10;;;;;;;;;;4957062;28;20495;-89
2023/04/28 16:30:18;;;;;;;3.47;1.10;;;;;;;;;;4954006;28;20030;-88
2023/04/28 16:32:44;;;;;;;2.10;1.00;;;;;;;;;;4947446;28;20039;-88
2023/04/28 16:35:12;;;;;;;3.97;0.90;;;;;;;;;;4951627;28;20063;-89
2023/04/28 16:37:39;;;;;;;2.45;1.10;;;20.30;99.90;;;;;;4963893;28;20057;-86
2023/04/28 16:40:07;;;;;;;1.95;1.17;;;20.10;99.90;;;;;;4952085;28;20031;-86
2023/04/28 16:42:33;;;;;;;3.88;1.45;;;;;;;;;;4975321;28;20027;-88
2023/04/28 16:44:59;;;;;;;49.50;20.10;;;;;;;;;;4959703;28;20395;-85
2023/04/28 16:47:25;;;;;;;2.83;1.20;;;;;;;;;;4959976;28;20034;-87
2023/04/28 16:49:52;;;;;;;2.55;1.17;;;;;;;;;;4954456;28;20046;-86
2023/04/28 16:52:18;;;;;;;2.00;1.20;;;;;;;;;;4960086;28;20026;-87
2023/04/28 16:54:44;;;;;;;2.70;1.45;;;;;;;;;;4952552;28;20041;-85
2023/04/28 16:57:10;;;;;;;3.00;1.50;;;;;;;;;;4957467;28;20103;-87
2023/04/28 16:59:36;;;;;;;1.92;1.08;;;;;;;;;;4960479;28;20091;-88
2023/04/28 17:02:05;;;;;;;2.35;1.50;;;20.40;99.90;;;;;;4956891;28;20035;-88
2023/04/28 17:04:31;;;;;;;2.67;1.60;;;;;;;;;;4962307;28;20126;-89
2023/04/28 17:06:57;;;;;;;4.03;1.45;;;20.40;99.90;;;;;;4975920;28;20395;-88
2023/04/28 17:09:24;;;;;;;2.45;1.20;;;20.40;99.90;;;;;;4958976;28;20030;-88
2023/04/28 17:11:51;;;;;;;1.77;0.98;;;;;;;;;;4973273;28;20042;-89
2023/04/28 17:14:17;;;;;;;3.05;1.30;;;;;;;;;;4963289;28;20027;-90
2023/04/28 17:16:44;;;;;;;3.13;1.38;;;;;;;;;;4959253;28;20042;-88
2023/04/28 17:19:10;;;;;;;2.75;1.27;;;;;;;;;;4973514;28;20448;-90
2023/04/28 17:21:36;;;;;;;3.28;1.13;;;;;;;;;;4979756;28;20034;-90
2023/04/28 17:24:02;;;;;;;1.80;1.05;;;;;;;;;;4960594;28;20038;-90
2023/04/28 17:26:29;;;;;;;3.47;1.30;;;19.70;99.90;;;;;;4962058;28;20027;-89
2023/04/28 17:28:57;;;;;;;2.65;1.30;;;;;;;;;;4971712;28;20035;-90
2023/04/28 17:31:23;;;;;;;3.10;1.50;;;;;;;;;;4970747;28;20027;-89
2023/04/28 17:33:53;;;;;;;3.25;1.38;;;19.70;99.90;;;;;;4960111;28;20030;-91
2023/04/28 17:36:20;;;;;;;4.90;2.45;;;;;;;;;;4960147;28;20038;-89
2023/04/28 17:38:46;;;;;;;3.13;1.58;;;;;;;;;;4959213;28;20027;-89
2023/04/28 17:41:13;;;;;;;2.42;1.10;;;;;;;;;;4964836;28;20030;-90
2023/04/28 17:43:39;;;;;;;2.45;1.23;;;19.60;99.90;;;;;;4953706;28;20028;-91
2023/04/28 17:46:05;;;;;;;3.08;1.38;;;19.50;99.90;;;;;;4952670;28;20050;-91
2023/04/28 17:48:30;;;;;;;3.00;1.20;;;19.50;99.90;;;;;;4961244;28;20027;-89
2023/04/28 17:50:56;;;;;;;2.35;1.20;;;19.50;99.90;;;;;;4947514;28;20483;-89
2023/04/28 17:53:22;;;;;;;4.72;1.75;;;;;;;;;;4958241;28;20026;-92
2023/04/28 17:55:48;;;;;;;4.15;1.73;;;;;;;;;;4958841;28;20023;-90
2023/04/28 17:58:14;;;;;;;2.70;1.30;;;19.20;99.90;;;;;;4960824;28;20042;-89
2023/04/28 18:00:40;;;;;;;4.93;1.92;;;;;;;;;;4956566;28;20022;-91
2023/04/28 18:03:06;;;;;;;3.83;1.48;;;;;;;;;;4946690;28;20130;-90
2023/04/28 18:05:32;;;;;;;2.35;1.45;;;;;;;;;;4963233;28;20035;-90
2023/04/28 18:08:05;;;;;;;2.22;1.20;;;;;;;;;;4963034;28;20038;-91
2023/04/28 18:10:33;;;;;;;3.05;1.45;;;18.80;99.90;;;;;;4965470;28;20203;-90
2023/04/28 18:12:59;;;;;;;4.15;2.70;;;;;;;;;;4974742;28;20038;-90